Neguac, Canada
Current Conditions -  °F | °C
As of 7:00 PM on Saturday 20 Dec 2014 (Local Time) from CZBF Reporting Station
Light Snow Light Snow  
Wind Chill: 21°   Ceiling: 1500
Heat Index: 21°   Visibility: 5mi
Dew Point: 18°   Wind: 0mph
Humidity: 86%   Direction: NA
Pressure: 30.39"   Gusts: NA
Location:  47.23°N, 65.05°W
Report Text: CZBF 202300Z 00000KT 5SM -SG OVC015 M06/M08 A3039 RMK ST8 SLP296
Loading
Personal Weather Stations






























Interactive Weather Map New forecast layout! Learn more

10-Day Weather Forecast

Advertisements
Track Severe Weather on mobile